createdAt,value
2018-08-28T00:01:15.473Z,5.83
2018-08-28T00:05:23.778Z,6.10
2018-08-28T00:09:32.079Z,6.50
2018-08-28T00:13:40.375Z,5.97
2018-08-28T00:17:48.678Z,6.57
2018-08-28T00:21:56.961Z,7.17
2018-08-28T00:26:05.295Z,7.67
2018-08-28T00:30:13.614Z,6.93
2018-08-28T00:34:21.900Z,8.60
2018-08-28T00:38:30.254Z,6.77
2018-08-28T00:42:38.597Z,6.60
2018-08-28T00:46:46.899Z,7.53
2018-08-28T00:50:55.196Z,7.47
2018-08-28T00:55:03.531Z,7.47
2018-08-28T00:59:11.847Z,7.60
2018-08-28T01:03:20.158Z,6.70
2018-08-28T01:07:28.454Z,7.20
2018-08-28T01:11:36.846Z,7.20
2018-08-28T01:15:45.121Z,8.07
2018-08-28T01:19:53.420Z,6.83
2018-08-28T01:24:01.731Z,7.07
2018-08-28T01:28:10.003Z,7.40
2018-08-28T01:32:18.297Z,7.67
2018-08-28T01:36:26.596Z,7.00
2018-08-28T01:40:34.848Z,6.97
2018-08-28T01:44:43.126Z,8.07
2018-08-28T01:48:51.401Z,7.77
2018-08-28T01:52:59.675Z,7.40
2018-08-28T01:57:07.943Z,7.90
2018-08-28T02:01:16.248Z,7.40
2018-08-28T02:05:24.548Z,8.40
2018-08-28T02:09:32.855Z,7.63
2018-08-28T02:13:41.190Z,8.63
2018-08-28T02:17:49.431Z,7.10
2018-08-28T02:21:57.755Z,7.63
2018-08-28T02:26:06.075Z,8.00
2018-08-28T02:30:14.340Z,7.40
2018-08-28T02:34:22.639Z,7.57
2018-08-28T02:38:30.911Z,7.53
2018-08-28T02:42:39.190Z,7.80
2018-08-28T02:46:47.499Z,7.90
2018-08-28T02:50:55.749Z,8.20
2018-08-28T02:55:04.029Z,8.10
2018-08-28T02:59:12.536Z,7.90
2018-08-28T03:03:20.806Z,8.83
2018-08-28T03:07:29.115Z,7.43
2018-08-28T03:11:37.456Z,7.40
2018-08-28T03:15:45.740Z,7.30
2018-08-28T03:19:54.066Z,7.70
2018-08-28T03:24:02.372Z,6.90
2018-08-28T03:28:10.657Z,7.63
2018-08-28T03:32:18.962Z,6.90
2018-08-28T03:36:27.218Z,6.97
2018-08-28T03:40:35.503Z,8.73
2018-08-28T03:44:43.809Z,7.77
2018-08-28T03:48:52.086Z,7.67
2018-08-28T03:53:00.384Z,7.30
2018-08-28T03:57:08.707Z,7.60
2018-08-28T04:01:16.959Z,8.57
2018-08-28T04:05:25.254Z,7.30
2018-08-28T04:09:33.638Z,7.50
2018-08-28T04:13:41.912Z,8.20
2018-08-28T04:17:51.030Z,7.53
2018-08-28T04:21:59.340Z,7.50
2018-08-28T04:26:07.640Z,8.47
2018-08-28T04:30:15.920Z,8.00
2018-08-28T04:34:24.229Z,8.30
2018-08-28T04:38:32.510Z,8.57
2018-08-28T04:42:40.805Z,7.20
2018-08-28T04:46:49.135Z,8.40
2018-08-28T04:50:57.397Z,8.50
2018-08-28T04:55:05.984Z,8.10
2018-08-28T04:59:14.287Z,8.00
2018-08-28T05:03:22.570Z,8.63
2018-08-28T05:07:31.006Z,8.20
2018-08-28T05:11:39.298Z,8.15
2018-08-28T05:15:47.567Z,7.23
2018-08-28T05:19:55.850Z,7.77
2018-08-28T05:24:04.141Z,6.70
2018-08-28T05:28:12.446Z,8.58
2018-08-28T05:32:20.734Z,8.03
2018-08-28T05:36:29.017Z,8.10
2018-08-28T05:40:37.303Z,8.10
2018-08-28T05:44:45.588Z,8.97
2018-08-28T05:48:53.945Z,7.73
2018-08-28T05:53:02.235Z,8.43
2018-08-28T05:57:10.536Z,7.50
2018-08-28T06:01:18.806Z,7.30
2018-08-28T06:05:27.098Z,10.70
2018-08-28T06:09:35.398Z,7.80
2018-08-28T06:13:43.681Z,7.20
2018-08-28T06:17:51.939Z,7.57
2018-08-28T06:22:00.208Z,7.50
2018-08-28T06:26:08.531Z,7.10
2018-08-28T06:30:16.838Z,7.50
2018-08-28T06:34:25.177Z,7.80
2018-08-28T06:38:33.504Z,6.97
2018-08-28T06:42:41.818Z,6.37
2018-08-28T06:46:50.152Z,6.20
2018-08-28T06:50:58.419Z,6.47
2018-08-28T06:55:06.842Z,6.80
2018-08-28T06:59:15.193Z,6.63
2018-08-28T07:03:23.457Z,7.78
2018-08-28T07:07:31.736Z,7.63
2018-08-28T07:11:40.028Z,6.80
2018-08-28T07:15:48.345Z,6.90
2018-08-28T07:19:56.597Z,6.92
2018-08-28T07:24:05.055Z,6.40
2018-08-28T07:28:13.326Z,6.40
2018-08-28T07:32:21.600Z,5.63
2018-08-28T07:36:29.893Z,6.97
2018-08-28T07:40:38.196Z,6.33
2018-08-28T07:44:46.459Z,6.20
2018-08-28T07:48:54.773Z,7.80
2018-08-28T07:53:03.036Z,6.67
2018-08-28T07:57:11.363Z,5.73
2018-08-28T08:01:20.695Z,6.40
2018-08-28T08:05:28.989Z,6.53
2018-08-28T08:09:37.278Z,7.60
2018-08-28T08:13:45.599Z,7.20
2018-08-28T08:17:53.901Z,5.70
2018-08-28T08:22:02.229Z,6.47
2018-08-28T08:26:10.509Z,6.53
2018-08-28T08:30:18.836Z,7.00
2018-08-28T08:34:27.131Z,6.60
2018-08-28T08:38:35.417Z,6.47
2018-08-28T08:42:43.750Z,5.50
2018-08-28T08:46:52.023Z,5.43
2018-08-28T08:51:00.307Z,5.27
2018-08-28T08:55:08.737Z,5.40
2018-08-28T08:59:17.027Z,5.63
2018-08-28T09:03:25.331Z,5.30
2018-08-28T09:07:33.629Z,5.87
2018-08-28T09:11:45.512Z,5.80
2018-08-28T09:15:53.810Z,6.80
2018-08-28T09:20:02.094Z,6.90
2018-08-28T09:24:10.420Z,6.20
2018-08-28T09:28:18.802Z,5.83
2018-08-28T09:32:27.164Z,6.83
2018-08-28T09:36:35.426Z,5.20
2018-08-28T09:40:43.731Z,6.77
2018-08-28T09:44:52.024Z,7.90
2018-08-28T09:49:00.313Z,6.10
2018-08-28T09:53:08.649Z,7.17
2018-08-28T09:57:16.973Z,7.40
2018-08-28T10:01:30.631Z,7.10
2018-08-28T10:05:38.891Z,7.17
2018-08-28T10:09:47.173Z,7.10
2018-08-28T10:13:55.593Z,7.57
2018-08-28T10:18:03.873Z,7.60
2018-08-28T10:22:12.181Z,7.90
2018-08-28T10:26:20.496Z,6.80
2018-08-28T10:30:28.822Z,6.30
2018-08-28T10:34:37.082Z,6.80
2018-08-28T10:38:45.396Z,6.40
2018-08-28T10:42:53.683Z,6.40
2018-08-28T10:47:02.008Z,8.10
2018-08-28T10:51:10.374Z,7.83
2018-08-28T10:55:18.662Z,7.63
2018-08-28T10:59:26.914Z,7.20
2018-08-28T11:03:35.212Z,7.73
2018-08-28T11:07:43.554Z,7.50
2018-08-28T11:11:51.851Z,7.77
2018-08-28T11:16:00.211Z,9.60
2018-08-28T11:20:08.477Z,6.40
2018-08-28T11:24:16.775Z,8.60
2018-08-28T11:28:25.184Z,7.20
2018-08-28T11:32:33.476Z,7.23
2018-08-28T11:36:41.792Z,7.90
2018-08-28T11:40:50.088Z,6.77
2018-08-28T11:44:58.368Z,7.57
2018-08-28T11:49:06.672Z,7.60
2018-08-28T11:53:15.029Z,7.27
2018-08-28T11:57:23.276Z,7.60
2018-08-28T12:01:31.547Z,7.53
2018-08-28T12:05:39.840Z,8.23
2018-08-28T12:09:48.139Z,7.60
2018-08-28T12:13:56.421Z,7.90
2018-08-28T12:18:04.710Z,10.60
2018-08-28T12:22:13.016Z,9.10
2018-08-28T12:26:21.340Z,8.33
2018-08-28T12:30:29.605Z,8.13
2018-08-28T12:34:37.892Z,8.03
2018-08-28T12:38:46.175Z,8.27
2018-08-28T12:42:54.476Z,8.90
2018-08-28T12:47:02.743Z,8.30
2018-08-28T12:51:11.081Z,8.80
2018-08-28T12:55:19.341Z,7.67
2018-08-28T12:59:27.644Z,9.90
2018-08-28T13:03:35.943Z,9.53
2018-08-28T13:07:44.269Z,10.43
2018-08-28T13:11:52.534Z,9.70
2018-08-28T13:16:00.847Z,9.80
2018-08-28T13:20:09.202Z,9.80
2018-08-28T13:24:17.559Z,10.83
2018-08-28T13:28:25.850Z,9.70
2018-08-28T13:32:34.159Z,10.17
2018-08-28T13:36:42.474Z,10.13
2018-08-28T13:40:50.915Z,9.43
2018-08-28T13:44:59.068Z,9.73
2018-08-28T13:49:07.387Z,10.20
2018-08-28T13:53:15.685Z,9.00
2018-08-28T13:57:23.973Z,10.00
2018-08-28T14:01:32.266Z,10.17
2018-08-28T14:05:40.567Z,9.80
2018-08-28T14:09:48.887Z,10.87
2018-08-28T14:13:57.290Z,10.50
2018-08-28T14:18:05.622Z,10.30
2018-08-28T14:22:14.439Z,10.80
2018-08-28T14:26:22.677Z,10.23
2018-08-28T14:30:30.971Z,10.00
2018-08-28T14:34:39.279Z,8.73
2018-08-28T14:38:47.579Z,9.73
2018-08-28T14:42:55.841Z,10.30
2018-08-28T14:47:04.137Z,9.57
2018-08-28T14:51:12.458Z,10.43
2018-08-28T14:55:20.760Z,10.43
2018-08-28T14:59:29.038Z,10.63
2018-08-28T15:03:37.326Z,10.40
2018-08-28T15:07:45.622Z,9.07
2018-08-28T15:11:53.937Z,10.03
2018-08-28T15:16:02.291Z,10.57
2018-08-28T15:20:10.616Z,9.87
2018-08-28T15:24:18.908Z,9.50
2018-08-28T15:28:27.199Z,9.60
2018-08-28T15:32:35.558Z,8.80
2018-08-28T15:36:43.867Z,9.88
2018-08-28T15:40:52.173Z,10.13
2018-08-28T15:45:00.445Z,10.13
2018-08-28T15:49:08.771Z,8.90
2018-08-28T15:53:17.180Z,7.80
2018-08-28T15:57:25.528Z,9.40
2018-08-28T16:01:33.929Z,10.13
2018-08-28T16:05:42.352Z,8.70
2018-08-28T16:09:50.615Z,8.10
2018-08-28T16:13:58.902Z,9.57
2018-08-28T16:18:07.277Z,8.40
2018-08-28T16:22:18.822Z,8.60
2018-08-28T16:26:27.138Z,9.93
2018-08-28T16:30:35.392Z,8.53
2018-08-28T16:34:43.683Z,7.80
2018-08-28T16:38:52.012Z,9.17
2018-08-28T16:43:00.259Z,8.57
2018-08-28T16:47:08.559Z,8.77
2018-08-28T16:51:16.881Z,8.70
2018-08-28T16:55:25.143Z,9.80
2018-08-28T16:59:33.411Z,8.30
2018-08-28T17:03:41.685Z,8.07
2018-08-28T17:07:49.999Z,8.77
2018-08-28T17:11:58.355Z,8.30
2018-08-28T17:16:06.664Z,8.80
2018-08-28T17:20:14.944Z,8.40
2018-08-28T17:24:23.343Z,7.90
2018-08-28T17:28:31.638Z,8.27
2018-08-28T17:32:39.938Z,8.27
2018-08-28T17:36:48.321Z,8.37
2018-08-28T17:40:56.617Z,8.80
2018-08-28T17:45:05.025Z,8.83
2018-08-28T17:49:13.416Z,8.43
2018-08-28T17:53:21.697Z,8.17
2018-08-28T17:57:29.995Z,8.80
2018-08-28T18:01:38.299Z,8.17
2018-08-28T18:05:46.603Z,10.30
2018-08-28T18:09:54.998Z,8.45
2018-08-28T18:14:03.291Z,8.67
2018-08-28T18:18:11.632Z,7.60
2018-08-28T18:22:19.958Z,8.50
2018-08-28T18:26:28.294Z,9.30
2018-08-28T18:30:36.626Z,9.50
2018-08-28T18:34:44.908Z,8.85
2018-08-28T18:38:53.174Z,9.17
2018-08-28T18:43:01.472Z,9.90
2018-08-28T18:47:09.775Z,8.57
2018-08-28T18:51:18.064Z,9.43
2018-08-28T18:55:26.383Z,9.10
2018-08-28T18:59:34.652Z,9.10
2018-08-28T19:03:42.976Z,9.90
2018-08-28T19:07:51.706Z,10.50
2018-08-28T19:11:59.949Z,9.27
2018-08-28T19:16:08.256Z,9.23
2018-08-28T19:20:16.583Z,11.73
2018-08-28T19:24:24.843Z,9.63
2018-08-28T19:28:33.159Z,9.40
2018-08-28T19:32:41.616Z,9.60
2018-08-28T19:36:49.969Z,11.20
2018-08-28T19:40:58.238Z,11.60
2018-08-28T19:45:06.601Z,10.10
2018-08-28T19:49:14.915Z,9.47
2018-08-28T19:53:23.485Z,9.57
2018-08-28T19:57:31.769Z,9.50
2018-08-28T20:01:40.097Z,9.53
2018-08-28T20:05:48.419Z,10.70
2018-08-28T20:09:56.679Z,10.33
2018-08-28T20:14:04.927Z,12.00
2018-08-28T20:18:13.233Z,11.43
2018-08-28T20:22:21.539Z,10.93
2018-08-28T20:26:29.963Z,10.00
2018-08-28T20:30:38.292Z,9.60
2018-08-28T20:34:46.582Z,10.60
2018-08-28T20:38:54.949Z,10.47
2018-08-28T20:43:03.239Z,11.30
2018-08-28T20:47:11.512Z,9.70
2018-08-28T20:51:19.797Z,10.97
2018-08-28T20:55:28.084Z,10.80
2018-08-28T20:59:36.353Z,10.43
2018-08-28T21:03:44.655Z,10.93
2018-08-28T21:07:52.962Z,10.20
2018-08-28T21:12:01.214Z,10.30
2018-08-28T21:16:09.516Z,10.70
2018-08-28T21:20:18.088Z,9.70
2018-08-28T21:24:26.405Z,10.00
2018-08-28T21:28:34.754Z,11.03
2018-08-28T21:32:43.046Z,9.67
2018-08-28T21:36:51.390Z,9.03
2018-08-28T21:40:59.681Z,9.07
2018-08-28T21:45:07.939Z,9.20
2018-08-28T21:49:16.216Z,9.60
2018-08-28T21:53:24.506Z,9.00
2018-08-28T21:57:32.811Z,9.63
2018-08-28T22:01:41.099Z,8.20
2018-08-28T22:05:49.415Z,10.00
2018-08-28T22:09:57.694Z,10.40
2018-08-28T22:14:05.989Z,9.17
2018-08-28T22:18:14.272Z,10.50
2018-08-28T22:22:22.605Z,10.70
2018-08-28T22:26:30.871Z,9.77
2018-08-28T22:30:39.176Z,10.17
2018-08-28T22:34:47.477Z,9.90
2018-08-28T22:38:55.762Z,10.73
2018-08-28T22:43:04.154Z,11.17
2018-08-28T22:47:12.464Z,12.60
2018-08-28T22:51:20.743Z,11.80
2018-08-28T22:55:29.063Z,10.80
2018-08-28T22:59:37.344Z,11.10
2018-08-28T23:03:45.637Z,12.07
2018-08-28T23:07:53.902Z,10.50
2018-08-28T23:12:02.181Z,11.50
2018-08-28T23:16:10.467Z,10.80
2018-08-28T23:20:18.730Z,12.70
2018-08-28T23:24:27.029Z,11.60
2018-08-28T23:28:35.364Z,11.00
2018-08-28T23:32:43.681Z,10.43
2018-08-28T23:36:51.996Z,12.13
2018-08-28T23:41:00.327Z,11.67
2018-08-28T23:45:08.750Z,12.00
2018-08-28T23:49:17.202Z,11.13
2018-08-28T23:53:25.528Z,11.83
2018-08-28T23:57:33.886Z,12.83
